EDLP/PAD METAR and TAF weather

Enter ICAO airport designator
Station Type Date Time Source
EDLP METAR 2022/11/30 10:50 UTC NOAA

EDLP 301050Z VRB02KT 2000 BR BKN002 OVC007 05/05 Q1022


Station Type Date Time Source
EDLP Decoded METAR 2022/11/30 10:50 UTC NOAA

Paderborn / Lippstadt, Germany (EDLP) 51-37N 008-37E
Nov 30, 2022 - 05:50 AM EST / 2022.11.30 1050 UTC
Wind: Variable at 2 MPH (2 KT):0
Visibility: 1 mile(s):0
Sky conditions: overcast
Weather: mist
Temperature: 41 F (5 C)
Dew Point: 41 F (5 C)
Relative Humidity: 100%
Pressure (altimeter): 30.18 in. Hg (1022 hPa)
ob: EDLP 301050Z VRB02KT 2000 BR BKN002 OVC007 05/05 Q1022
cycle: 11

Station Type Date Time Source
EDLP TAF 2022/11/30 06:27 UTC NOAA

TAF EDLP 300500Z 3006/0106 33003KT 1500 -DZ BR OVC002
TEMPO 3006/0106 0300 DZ FG BKN000

Example: see airport list